Time;durP1;ratioP1;P1;durP2;ratioP2;P2;SDS_P1;SDS_P2;PMS_P1;PMS_P2;Temp;Humidity;BMP_temperature;BMP_pressure;BME280_temperature;BME280_humidity;BME280_pressure;Samples;Min_cycle;Max_cycle;Signal;HPM_P1;HPM_P2
2022/11/24 00:02:42;;;;;;;;;;;;;;;;;;6227523;22;19919;-90
2022/11/24 00:05:37;;;;;;;;;;;;;;;;;;6233070;23;20371;-90
2022/11/24 00:08:22;;;;;;;;;;;;;;;;;;;;;
2022/11/24 00:11:11;;;;;;;;;;;;;;;;;;;;;
2022/11/24 00:13:43;;;;;;;;;;;;;;;;;;6174118;23;19920;-91
2022/11/24 00:19:14;;;;;;;;;;;;;;;;;;;;;
2022/11/24 00:21:59;;;;;;;;;;;;;;;;;;;;;
2022/11/24 00:24:39;;;;;;;;;;;;;;;;;;6173924;23;19919;-90
2022/11/24 00:27:22;;;;;;;;;;;;;;;;;;6151701;23;19930;-91
2022/11/24 00:30:00;;;;;;;;;;;;;;;;;;6145681;23;19923;-90
2022/11/24 00:32:35;;;;;;;;;;;;;;;;;;6117861;23;19955;-91
2022/11/24 00:35:24;;;;;;;;;;;;;;;;;;6120630;23;20528;-90
2022/11/24 00:37:52;;;;;;;;;;;;;;;;;;6145032;23;19940;-91
2022/11/24 00:40:41;;;;;;;;;;;;;;;;;;6164413;23;19917;-91
2022/11/24 00:43:46;;;;;;;;;;;;;;;;;;6180342;23;20353;-90
2022/11/24 00:46:22;;;;;;;;;;;;;;;;;;6145657;23;20290;-91
2022/11/24 00:51:54;;;;;;;;;;;;;;;;;;;;;
2022/11/24 00:54:33;;;;;;;;;;;;;;;;;;;;;
2022/11/24 00:57:12;;;;;;;;;;;;;;;;;;6199397;23;20277;-90
2022/11/24 01:00:05;;;;;;;;;;;;;;;;;;6202793;23;19964;-91
2022/11/24 01:05:24;;;;;;;;;;;;;;;;;;6142778;23;20402;-91
2022/11/24 01:07:56;;;;;;;;;;;;;;;;;;6197962;23;19926;-90
2022/11/24 01:16:19;;;;;;;;;;;;;;;;;;6258202;22;20300;-90
2022/11/24 01:18:52;;;;;;;;;;;;;;;;;;6249879;22;19930;-90
2022/11/24 01:21:31;;;;;;;;;;;;;;;;;;6229441;23;20335;-91
2022/11/24 01:24:48;;;;;;;;;;;;;;;;;;6108399;23;19924;-91
2022/11/24 01:27:22;;;;;;;;;;;;;;;;;;6217543;23;19919;-91
2022/11/24 01:30:15;;;;;;;;;;;;;;;;;;6230898;23;20305;-91
2022/11/24 01:33:00;;;;;;;;;;;;;;;;;;6215262;22;19919;-91
2022/11/24 01:35:38;;;;;;;;;;;;;;;;;;6227856;23;19916;-90
2022/11/24 01:41:02;;;;;;;;;;;;;;;;;;6190009;23;19920;-91
2022/11/24 01:43:42;;;;;;;;;;;;;;;;;;6197209;23;19920;-91
2022/11/24 01:49:34;;;;;;;;;;;;;;;;;;;;;
2022/11/24 01:52:12;;;;;;;;;;;;;;;;;;6197892;23;19995;-90
2022/11/24 01:54:41;;;;;;;;;;;;;;;;;;6159530;23;20004;-90
2022/11/24 02:00:02;;;;;;;;;;;;;;;;;;6082109;23;19996;-90
2022/11/24 02:02:38;;;;;;;;;;;;;;;;;;6056146;23;20349;-91
2022/11/24 02:05:22;;;;;;;;;;;;;;;;;;6087404;23;19924;-91
2022/11/24 02:07:56;;;;;;;;;;;;;;;;;;6061645;23;19925;-90
2022/11/24 02:10:38;;;;;;;;;;;;;;;;;;;;;
2022/11/24 02:13:27;;;;;;;;;;;;;;;;;;6084019;23;19917;-91
2022/11/24 02:16:01;;;;;;;;;;;;;;;;;;6144844;23;19944;-91
2022/11/24 02:21:24;;;;;;;;;;;;;;;;;;;;;
2022/11/24 02:24:07;;;;;;;;;;;;;;;;;;;;;
2022/11/24 02:26:57;;;;;;;;;;;;;;;;;;6089936;23;19925;-90
2022/11/24 02:29:29;;;;;;;;;;;;;;;;;;6076870;23;20334;-91
2022/11/24 02:35:20;;;;;;;;;;;;;;;;;;6077940;23;19983;-90
2022/11/24 02:37:45;;;;;;;;;;;;;;;;;;6110221;23;19931;-90
2022/11/24 02:40:25;;;;;;;;;;;;;;;;;;;;;
2022/11/24 02:43:04;;;;;;;;;;;;;;;;;;;;;
2022/11/24 02:45:51;;;;;;;;;;;;;;;;;;6118886;23;19944;-91
2022/11/24 02:48:17;;;;;;;;;;;;;;;;;;6168063;23;20408;-91
2022/11/24 02:50:46;;;;;;;;;;;;;;;;;;6173966;23;19920;-90
2022/11/24 02:53:15;;;;;;;;;;;;;;;;;;6173669;23;19962;-90
2022/11/24 02:55:41;;;;;;;;;;;;;;;;;;6173258;23;19920;-90
2022/11/24 02:58:07;;;;;;;;;;;;;;;;;;6189772;23;19966;-91
2022/11/24 03:00:36;;;;;;;;;;;;;;;;;;6227666;23;19927;-91
2022/11/24 03:03:05;;;;;;;;;;;;;;;;;;6229838;22;20256;-91
2022/11/24 03:05:31;;;;;;;;;;;;;;;;;;6228335;23;19951;-90
2022/11/24 03:08:04;;;;;;;;;;;;;;;;;;6230908;23;20332;-91
2022/11/24 03:10:30;;;;;;;;;;;;;;;;;;6227932;23;19928;-91
2022/11/24 03:12:56;;;;;;;;;;;;;;;;;;6233231;23;19920;-91
2022/11/24 03:15:22;;;;;;;;;;;;;;;;;;6231697;23;19916;-91
2022/11/24 03:17:48;;;;;;;;;;;;;;;;;;6231919;23;19920;-90
2022/11/24 03:20:14;;;;;;;;;;;;;;;;;;6231593;23;19927;-91
2022/11/24 03:22:40;;;;;;;;;;;;;;;;;;6229480;23;20321;-91
2022/11/24 03:25:06;;;;;;;;;;;;;;;;;;6231649;23;19919;-91
2022/11/24 03:27:32;;;;;;;;;;;;;;;;;;6231623;23;19991;-91
2022/11/24 03:29:58;;;;;;;;;;;;;;;;;;6234434;23;20724;-90
2022/11/24 03:32:24;;;;;;;;;;;;;;;;;;6230922;23;19919;-91
2022/11/24 03:34:50;;;;;;;;;;;;;;;;;;6233786;23;19973;-91
2022/11/24 03:37:16;;;;;;;;;;;;;;;;;;6235464;23;19919;-90
2022/11/24 03:39:42;;;;;;;;;;;;;;;;;;6232067;23;20460;-90
2022/11/24 03:42:08;;;;;;;;;;;;;;;;;;6234955;23;20598;-91
2022/11/24 03:44:34;;;;;;;;;;;;;;;;;;6231808;23;19919;-91
2022/11/24 03:47:00;;;;;;;;;;;;;;;;;;6233382;23;19939;-90
2022/11/24 03:49:26;;;;;;;;;;;;;;;;;;6255989;22;19926;-91
2022/11/24 03:51:52;;;;;;;;;;;;;;;;;;6235604;23;19919;-91
2022/11/24 03:54:19;;;;;;;;;;;;;;;;;;6234590;23;19920;-91
2022/11/24 03:56:50;;;;;;;;;;;;;;;;;;6232908;23;20367;-91
2022/11/24 03:59:18;;;;;;;;;;;;;;;;;;6233029;23;19923;-91
2022/11/24 04:01:44;;;;;;;;;;;;;;;;;;6230803;22;19927;-90
2022/11/24 04:04:13;;;;;;;;;;;;;;;;;;6232833;23;19926;-91
2022/11/24 04:06:42;;;;;;;;;;;;;;;;;;6229854;23;20308;-91
2022/11/24 04:09:10;;;;;;;;;;;;;;;;;;6231796;23;19926;-90
2022/11/24 04:14:24;;;;;;;;;;;;;;;;;;6232503;23;19927;-91
2022/11/24 04:16:56;;;;;;;;;;;;;;;;;;6231263;23;19927;-91
2022/11/24 04:19:25;;;;;;;;;;;;;;;;;;6229116;23;19942;-91
2022/11/24 04:21:51;;;;;;;;;;;;;;;;;;6231262;23;19923;-90
2022/11/24 04:24:17;;;;;;;;;;;;;;;;;;6231014;23;20529;-91
2022/11/24 04:26:43;;;;;;;;;;;;;;;;;;6230661;23;19927;-91
2022/11/24 04:29:09;;;;;;;;;;;;;;;;;;6234897;23;19998;-91
2022/11/24 04:31:35;;;;;;;;;;;;;;;;;;6230945;23;19955;-91
2022/11/24 04:34:01;;;;;;;;;;;;;;;;;;6232822;23;19920;-91
2022/11/24 04:36:27;;;;;;;;;;;;;;;;;;6232658;23;20229;-92
2022/11/24 04:38:53;;;;;;;;;;;;;;;;;;6232543;23;19923;-91
2022/11/24 04:41:19;;;;;;;;;;;;;;;;;;6231058;23;19955;-91
2022/11/24 04:43:45;;;;;;;;;;;;;;;;;;6229650;23;19938;-91
2022/11/24 04:46:11;;;;;;;;;;;;;;;;;;6231693;23;20451;-91
2022/11/24 04:48:37;;;;;;;;;;;;;;;;;;6229251;23;20061;-90
2022/11/24 04:51:03;;;;;;;;;;;;;;;;;;6230831;23;20000;-91
2022/11/24 04:53:29;;;;;;;;;;;;;;;;;;6228672;23;19919;-91
2022/11/24 04:55:55;;;;;;;;;;;;;;;;;;6234183;23;20340;-90
2022/11/24 04:58:26;;;;;;;;;;;;;;;;;;6230770;23;19970;-91
2022/11/24 05:00:52;;;;;;;;;;;;;;;;;;6229722;23;19924;-91
2022/11/24 05:03:18;;;;;;;;;;;;;;;;;;6231128;22;19915;-91
2022/11/24 05:05:44;;;;;;;;;;;;;;;;;;6227282;23;19919;-91
2022/11/24 05:08:13;;;;;;;;;;;;;;;;;;6231163;23;19919;-91
2022/11/24 05:10:39;;;;;;;;;;;;;;;;;;6230113;23;20609;-91
2022/11/24 05:13:05;;;;;;;;;;;;;;;;;;6231905;23;19920;-91
2022/11/24 05:15:31;;;;;;;;;;;;;;;;;;6230410;23;19942;-91
2022/11/24 05:17:57;;;;;;;;;;;;;;;;;;6230471;23;19920;-91
2022/11/24 05:20:23;;;;;;;;;;;;;;;;;;6229155;23;19954;-91
2022/11/24 05:22:52;;;;;;;;;;;;;;;;;;6230209;23;19924;-91
2022/11/24 05:25:18;;;;;;;;;;;;;;;;;;6230228;23;20279;-91
2022/11/24 05:27:44;;;;;;;;;;;;;;;;;;6229140;23;19926;-91
2022/11/24 05:30:10;;;;;;;;;;;;;;;;;;6230153;23;20640;-91
2022/11/24 05:32:36;;;;;;;;;;;;;;;;;;6226509;23;19916;-90
2022/11/24 05:35:03;;;;;;;;;;;;;;;;;;6230381;23;20351;-91
2022/11/24 05:37:32;;;;;;;;;;;;;;;;;;6227994;23;19927;-91
2022/11/24 05:39:58;;;;;;;;;;;;;;;;;;6230346;23;19974;-90
2022/11/24 05:42:41;;;;;;;;;;;;;;;;;;6228650;23;19919;-91
2022/11/24 05:45:10;;;;;;;;;;;;;;;;;;6230697;23;19919;-91
2022/11/24 05:47:36;;;;;;;;;;;;;;;;;;6229043;23;19919;-92
2022/11/24 05:50:02;;;;;;;;;;;;;;;;;;6231684;23;19922;-91
2022/11/24 05:52:31;;;;;;;;;;;;;;;;;;6229627;23;19976;-91
2022/11/24 05:54:57;;;;;;;;;;;;;;;;;;6231046;23;20007;-90
2022/11/24 05:57:23;;;;;;;;;;;;;;;;;;6230442;23;20002;-90
2022/11/24 05:59:49;;;;;;;;;;;;;;;;;;6234624;23;19920;-91
2022/11/24 06:02:15;;;;;;;;;;;;;;;;;;6229222;22;19915;-91
2022/11/24 06:04:43;;;;;;;;;;;;;;;;;;6230595;23;20502;-91
2022/11/24 06:07:09;;;;;;;;;;;;;;;;;;6234058;23;19919;-91
2022/11/24 06:09:36;;;;;;;;;;;;;;;;;;6230707;23;19923;-92
2022/11/24 06:12:05;;;;;;;;;;;;;;;;;;6235142;23;20355;-91
2022/11/24 06:14:36;;;;;;;;;;;;;;;;;;6232524;23;19916;-91
2022/11/24 06:17:05;;;;;;;;;;;;;;;;;;6233577;23;19967;-91
2022/11/24 06:19:34;;;;;;;;;;;;;;;;;;6234309;23;20002;-91
2022/11/24 06:22:00;;;;;;;;;;;;;;;;;;6233963;23;20004;-90
2022/11/24 06:24:26;;;;;;;;;;;;;;;;;;6234339;23;20343;-90
2022/11/24 06:26:53;;;;;;;;;;;;;;;;;;6236734;23;20368;-91
2022/11/24 06:29:19;;;;;;;;;;;;;;;;;;6233203;23;19994;-90
2022/11/24 06:31:45;;;;;;;;;;;;;;;;;;6230321;23;19916;-91
2022/11/24 06:34:11;;;;;;;;;;;;;;;;;;6231753;23;19919;-90
2022/11/24 06:36:37;;;;;;;;;;;;;;;;;;6230904;23;20002;-90
2022/11/24 06:39:05;;;;;;;;;;;;;;;;;;6233605;23;19959;-90
2022/11/24 06:41:31;;;;;;;;;;;;;;;;;;6231309;23;19994;-90
2022/11/24 06:44:00;;;;;;;;;;;;;;;;;;6233292;23;19927;-90
2022/11/24 06:46:29;;;;;;;;;;;;;;;;;;6229101;23;20420;-91
2022/11/24 06:48:55;;;;;;;;;;;;;;;;;;6231138;23;19915;-91
2022/11/24 06:51:25;;;;;;;;;;;;;;;;;;6232005;23;20253;-90
2022/11/24 06:53:51;;;;;;;;;;;;;;;;;;6231523;23;19964;-90
2022/11/24 06:56:17;;;;;;;;;;;;;;;;;;6231608;23;20630;-90
2022/11/24 06:58:43;;;;;;;;;;;;;;;;;;6227934;23;20107;-90
2022/11/24 07:01:09;;;;;;;;;;;;;;;;;;6227167;22;19922;-92
2022/11/24 07:03:41;;;;;;;;;;;;;;;;;;6229763;23;19927;-91
2022/11/24 07:06:09;;;;;;;;;;;;;;;;;;6234720;23;20332;-91
2022/11/24 07:08:36;;;;;;;;;;;;;;;;;;6231260;23;19915;-89
2022/11/24 07:11:05;;;;;;;;;;;;;;;;;;6230110;23;20018;-90
2022/11/24 07:13:34;;;;;;;;;;;;;;;;;;6226622;23;20343;-91
2022/11/24 07:16:03;;;;;;;;;;;;;;;;;;6232348;23;19926;-90
2022/11/24 07:18:29;;;;;;;;;;;;;;;;;;6231216;23;20002;-90
2022/11/24 07:20:55;;;;;;;;;;;;;;;;;;6231507;23;19942;-89
2022/11/24 07:23:28;;;;;;;;;;;;;;;;;;6235551;23;20340;-89
2022/11/24 07:26:01;;;;;;;;;;;;;;;;;;6235656;23;19983;-89
2022/11/24 07:28:27;;;;;;;;;;;;;;;;;;6232145;23;20421;-90
2022/11/24 07:30:56;;;;;;;;;;;;;;;;;;6236123;23;19964;-90
2022/11/24 07:33:24;;;;;;;;;;;;;;;;;;6232684;23;20464;-89
2022/11/24 07:38:43;;;;;;;;;;;;;;;;;;6259020;22;19932;-89
2022/11/24 07:41:11;;;;;;;;;;;;;;;;;;6232287;23;19947;-89
2022/11/24 07:43:37;;;;;;;;;;;;;;;;;;6227461;23;20335;-90
2022/11/24 07:46:03;;;;;;;;;;;;;;;;;;6232288;23;20420;-90
2022/11/24 07:48:32;;;;;;;;;;;;;;;;;;6228583;23;19924;-89
2022/11/24 07:51:00;;;;;;;;;;;;;;;;;;6230927;23;20340;-89
2022/11/24 07:53:26;;;;;;;;;;;;;;;;;;6233303;23;19916;-89
2022/11/24 07:55:53;;;;;;;;;;;;;;;;;;6233989;23;19924;-89
2022/11/24 07:58:19;;;;;;;;;;;;;;;;;;6234149;23;19923;-90
2022/11/24 08:00:45;;;;;;;;;;;;;;;;;;6234597;23;20236;-89
2022/11/24 08:03:11;;;;;;;;;;;;;;;;;;6237422;22;19922;-89
2022/11/24 08:05:37;;;;;;;;;;;;;;;;;;6234237;23;19925;-89
2022/11/24 08:08:03;;;;;;;;;;;;;;;;;;6237895;23;20225;-89
2022/11/24 08:10:32;;;;;;;;;;;;;;;;;;6233641;23;19916;-89
2022/11/24 08:12:58;;;;;;;;;;;;;;;;;;6235391;23;19915;-89
2022/11/24 08:15:24;;;;;;;;;;;;;;;;;;6233312;23;19919;-89
2022/11/24 08:17:50;;;;;;;;;;;;;;;;;;6237350;23;19924;-89
2022/11/24 08:20:16;;;;;;;;;;;;;;;;;;6236000;23;20252;-89
2022/11/24 08:22:48;;;;;;;;;;;;;;;;;;6234083;23;20946;-89
2022/11/24 08:25:16;;;;;;;;;;;;;;;;;;6236788;23;19973;-89
2022/11/24 08:27:42;;;;;;;;;;;;;;;;;;6233943;23;19923;-89
2022/11/24 08:30:11;;;;;;;;;;;;;;;;;;6236785;23;19974;-89
2022/11/24 08:32:37;;;;;;;;;;;;;;;;;;6233978;23;19919;-89
2022/11/24 08:35:03;;;;;;;;;;;;;;;;;;6236078;23;19920;-89
2022/11/24 08:37:29;;;;;;;;;;;;;;;;;;6234321;23;20244;-89
2022/11/24 08:39:55;;;;;;;;;;;;;;;;;;6236981;23;19917;-89
2022/11/24 08:42:21;;;;;;;;;;;;;;;;;;6236070;23;20034;-89
2022/11/24 08:44:50;;;;;;;;;;;;;;;;;;6235447;23;19920;-89
2022/11/24 08:47:16;;;;;;;;;;;;;;;;;;6236762;23;20253;-89
2022/11/24 08:49:42;;;;;;;;;;;;;;;;;;6233623;23;19970;-89
2022/11/24 08:52:11;;;;;;;;;;;;;;;;;;6236401;23;20310;-89
2022/11/24 08:54:37;;;;;;;;;;;;;;;;;;6234275;23;19950;-89
2022/11/24 08:57:03;;;;;;;;;;;;;;;;;;6235963;23;19920;-89
2022/11/24 08:59:29;;;;;;;;;;;;;;;;;;6233197;23;20345;-89
2022/11/24 09:01:55;;;;;;;;;;;;;;;;;;6234956;22;19955;-89
2022/11/24 09:04:23;;;;;;;;;;;;;;;;;;6236107;23;19935;-89
2022/11/24 09:06:49;;;;;;;;;;;;;;;;;;6235824;23;19922;-89
2022/11/24 09:09:15;;;;;;;;;;;;;;;;;;6234956;23;19919;-89
2022/11/24 09:11:41;;;;;;;;;;;;;;;;;;6231397;23;19947;-89
2022/11/24 09:14:07;;;;;;;;;;;;;;;;;;6235991;23;19919;-89
2022/11/24 09:16:33;;;;;;;;;;;;;;;;;;6233004;23;19920;-89
2022/11/24 09:19:01;;;;;;;;;;;;;;;;;;6235525;23;19919;-89
2022/11/24 09:21:27;;;;;;;;;;;;;;;;;;6235267;23;20336;-89
2022/11/24 09:23:53;;;;;;;;;;;;;;;;;;6236594;23;19922;-89
2022/11/24 09:26:19;;;;;;;;;;;;;;;;;;6234077;23;19990;-89
2022/11/24 09:28:46;;;;;;;;;;;;;;;;;;6232528;23;19919;-90
2022/11/24 09:31:12;;;;;;;;;;;;;;;;;;6236644;23;19955;-89
2022/11/24 09:33:38;;;;;;;;;;;;;;;;;;6234156;23;19930;-89
2022/11/24 09:36:04;;;;;;;;;;;;;;;;;;6233972;23;19974;-90
2022/11/24 09:38:30;;;;;;;;;;;;;;;;;;6232585;23;20014;-89
2022/11/24 09:40:56;;;;;;;;;;;;;;;;;;6235180;23;19954;-89
2022/11/24 09:43:22;;;;;;;;;;;;;;;;;;6233028;23;20303;-89
2022/11/24 09:45:48;;;;;;;;;;;;;;;;;;6235379;23;20346;-90
2022/11/24 09:48:16;;;;;;;;;;;;;;;;;;6244351;23;22754;-90
2022/11/24 09:50:42;;;;;;;;;;;;;;;;;;6233716;23;20022;-90
2022/11/24 09:53:08;;;;;;;;;;;;;;;;;;6236290;23;19922;-90
2022/11/24 09:55:36;;;;;;;;;;;;;;;;;;6233764;23;19951;-90
2022/11/24 09:58:02;;;;;;;;;;;;;;;;;;6235896;23;19924;-90
2022/11/24 10:00:29;;;;;;;;;;;;;;;;;;6233380;23;19923;-90
2022/11/24 10:02:54;;;;;;;;;;;;;;;;;;6235944;22;20347;-90
2022/11/24 10:05:20;;;;;;;;;;;;;;;;;;6235246;23;19920;-89
2022/11/24 10:07:47;;;;;;;;;;;;;;;;;;6234472;23;19920;-90
2022/11/24 10:10:13;;;;;;;;;;;;;;;;;;6234215;23;19920;-89
2022/11/24 10:12:39;;;;;;;;;;;;;;;;;;6233376;23;19951;-89
2022/11/24 10:15:05;;;;;;;;;;;;;;;;;;6235874;23;20003;-89
2022/11/24 10:17:30;;;;;;;;;;;;;;;;;;6232424;23;20028;-89
2022/11/24 10:20:04;;;;;;;;;;;;;;;;;;6236212;23;19969;-89
2022/11/24 10:22:30;;;;;;;;;;;;;;;;;;6233596;23;19922;-89
2022/11/24 10:24:56;;;;;;;;;;;;;;;;;;6234893;23;19923;-89
2022/11/24 10:27:22;;;;;;;;;;;;;;;;;;6232942;23;19919;-89
2022/11/24 10:29:48;;;;;;;;;;;;;;;;;;6236401;23;19919;-89
2022/11/24 10:32:14;;;;;;;;;;;;;;;;;;6234267;23;19920;-89
2022/11/24 10:34:40;;;;;;;;;;;;;;;;;;6231934;23;19966;-90
2022/11/24 10:37:06;;;;;;;;;;;;;;;;;;6236452;23;19916;-89
2022/11/24 10:39:32;;;;;;;;;;;;;;;;;;6231765;23;19920;-90
2022/11/24 10:41:58;;;;;;;;;;;;;;;;;;6233725;23;20012;-90
2022/11/24 10:44:24;;;;;;;;;;;;;;;;;;6232716;23;20498;-90
2022/11/24 10:46:51;;;;;;;;;;;;;;;;;;6236329;23;19924;-90
2022/11/24 10:49:20;;;;;;;;;;;;;;;;;;6234386;23;20188;-89
2022/11/24 10:51:46;;;;;;;;;;;;;;;;;;6234064;23;19973;-88
2022/11/24 10:54:15;;;;;;;;;;;;;;;;;;6236410;23;19954;-89
2022/11/24 10:56:41;;;;;;;;;;;;;;;;;;6233578;23;19977;-89
2022/11/24 10:59:07;;;;;;;;;;;;;;;;;;6234907;23;20321;-90
2022/11/24 11:01:33;;;;;;;;;;;;;;;;;;6233498;22;19922;-89
2022/11/24 11:04:00;;;;;;;;;;;;;;;;;;6236042;23;20001;-89
2022/11/24 11:06:26;;;;;;;;;;;;;;;;;;6233410;23;19999;-89
2022/11/24 11:08:52;;;;;;;;;;;;;;;;;;6235644;23;19963;-89
2022/11/24 11:11:18;;;;;;;;;;;;;;;;;;6236080;23;19929;-89
2022/11/24 11:13:49;;;;;;;;;;;;;;;;;;6233744;23;19919;-89
2022/11/24 11:16:15;;;;;;;;;;;;;;;;;;6235770;23;19923;-89
2022/11/24 11:18:41;;;;;;;;;;;;;;;;;;6232935;23;20427;-89
2022/11/24 11:21:07;;;;;;;;;;;;;;;;;;6236125;23;19922;-89
2022/11/24 11:23:33;;;;;;;;;;;;;;;;;;6233251;23;19919;-90
2022/11/24 11:26:02;;;;;;;;;;;;;;;;;;6235080;23;19919;-89
2022/11/24 11:28:28;;;;;;;;;;;;;;;;;;6233459;23;20333;-89
2022/11/24 11:30:54;;;;;;;;;;;;;;;;;;6237926;23;20264;-89
2022/11/24 11:33:20;;;;;;;;;;;;;;;;;;6234612;23;19922;-90
2022/11/24 11:35:49;;;;;;;;;;;;;;;;;;6235395;23;19915;-90
2022/11/24 11:38:15;;;;;;;;;;;;;;;;;;6237970;23;19923;-87
2022/11/24 11:40:42;;;;;;;;;;;;;;;;;;6234377;23;19915;-87
2022/11/24 11:43:08;;;;;;;;;;;;;;;;;;6237505;23;19920;-87
2022/11/24 11:45:34;;;;;;;;;;;;;;;;;;6234448;23;19926;-87
2022/11/24 11:48:00;;;;;;;;;;;;;;;;;;6236784;23;19919;-87
2022/11/24 11:50:28;;;;;;;;;;;;;;;;;;6234086;23;20363;-87
2022/11/24 11:52:58;;;;;;;;;;;;;;;;;;6238322;23;19956;-87
2022/11/24 11:55:26;;;;;;;;;;;;;;;;;;6233387;23;19916;-87
2022/11/24 11:57:52;;;;;;;;;;;;;;;;;;6236742;23;19928;-87
2022/11/24 12:00:19;;;;;;;;;;;;;;;;;;6236566;23;20344;-87
2022/11/24 12:02:45;;;;;;;;;;;;;;;;;;6233499;22;19990;-87
2022/11/24 12:05:13;;;;;;;;;;;;;;;;;;6236686;23;19915;-87
2022/11/24 12:07:45;;;;;;;;;;;;;;;;;;6234661;23;20826;-87
2022/11/24 12:10:11;;;;;;;;;;;;;;;;;;6236242;23;19920;-87
2022/11/24 12:12:39;;;;;;;;;;;;;;;;;;6235287;23;19920;-88
2022/11/24 12:15:11;;;;;;;;;;;;;;;;;;6236821;23;20430;-87
2022/11/24 12:17:37;;;;;;;;;;;;;;;;;;6233361;23;19922;-88
2022/11/24 12:20:02;;;;;;;;;;;;;;;;;;6236719;23;20002;-87
2022/11/24 12:22:36;;;;;;;;;;;;;;;;;;6236785;23;19915;-91
2022/11/24 12:25:04;;;;;;;;;;;;;;;;;;6239651;23;19919;-90
2022/11/24 12:27:46;;;;;;;;;;;;;;;;;;6237117;23;19916;-91
2022/11/24 12:30:15;;;;;;;;;;;;;;;;;;6238310;22;19919;-91
2022/11/24 12:32:42;;;;;;;;;;;;;;;;;;6236359;23;20112;-91
2022/11/24 12:35:10;;;;;;;;;;;;;;;;;;6237910;23;20343;-94
2022/11/24 12:37:49;;;;;;;;;;;;;;;;;;6259802;22;20071;-92
2022/11/24 12:40:17;;;;;;;;;;;;;;;;;;6237291;23;19920;-93
2022/11/24 12:42:56;;;;;;;;;;;;;;;;;;6260522;22;19915;-94
2022/11/24 12:45:25;;;;;;;;;;;;;;;;;;6234657;23;19981;-93
2022/11/24 12:48:05;;;;;;;;;;;;;;;;;;6238544;23;19955;-93
2022/11/24 12:50:46;;;;;;;;;;;;;;;;;;6258412;22;20403;-94
2022/11/24 12:53:12;;;;;;;;;;;;;;;;;;6238745;23;20319;-94
2022/11/24 12:55:39;;;;;;;;;;;;;;;;;;6235859;23;19989;-93
2022/11/24 12:58:14;;;;;;;;;;;;;;;;;;6239004;23;19922;-93
2022/11/24 13:00:43;;;;;;;;;;;;;;;;;;6235168;23;19915;-92
2022/11/24 13:03:23;;;;;;;;;;;;;;;;;;6240544;22;19974;-93
2022/11/24 13:05:49;;;;;;;;;;;;;;;;;;6236880;23;20012;-93
2022/11/24 13:08:15;;;;;;;;;;;;;;;;;;6238335;23;19923;-94
2022/11/24 13:10:46;;;;;;;;;;;;;;;;;;6235316;23;20014;-93
2022/11/24 13:13:18;;;;;;;;;;;;;;;;;;6238060;23;19948;-95
2022/11/24 13:16:09;;;;;;;;;;;;;;;;;;6256029;22;20358;-95
2022/11/24 13:18:39;;;;;;;;;;;;;;;;;;6224158;23;19920;-93
2022/11/24 13:21:24;;;;;;;;;;;;;;;;;;6265151;22;19915;-94
2022/11/24 13:24:16;;;;;;;;;;;;;;;;;;6233360;23;19923;-93
2022/11/24 13:26:53;;;;;;;;;;;;;;;;;;6231938;23;19930;-95
2022/11/24 13:29:54;;;;;;;;;;;;;;;;;;6252473;22;19977;-93
2022/11/24 13:32:54;;;;;;;;;;;;;;;;;;6229794;23;19994;-93
2022/11/24 13:35:35;;;;;;;;;;;;;;;;;;6228896;22;20327;-94
2022/11/24 13:40:56;;;;;;;;;;;;;;;;;;6257270;22;19919;-93
2022/11/24 13:46:14;;;;;;;;;;;;;;;;;;6197847;23;19915;-94
2022/11/24 13:48:52;;;;;;;;;;;;;;;;;;6228998;23;19919;-93
2022/11/24 13:54:34;;;;;;;;;;;;;;;;;;6238767;23;19919;-93
2022/11/24 13:57:03;;;;;;;;;;;;;;;;;;6231963;23;19919;-92
2022/11/24 13:59:40;;;;;;;;;;;;;;;;;;6229612;23;20368;-93
2022/11/24 14:02:06;;;;;;;;;;;;;;;;;;6232051;22;20580;-94
2022/11/24 14:04:34;;;;;;;;;;;;;;;;;;6231542;23;20228;-93
2022/11/24 14:07:00;;;;;;;;;;;;;;;;;;6232846;23;20345;-93
2022/11/24 14:09:26;;;;;;;;;;;;;;;;;;6230141;23;20328;-93
2022/11/24 14:11:52;;;;;;;;;;;;;;;;;;6232702;23;20721;-93
2022/11/24 14:14:18;;;;;;;;;;;;;;;;;;6230150;23;19927;-93
2022/11/24 14:16:47;;;;;;;;;;;;;;;;;;6231814;23;20324;-93
2022/11/24 14:19:13;;;;;;;;;;;;;;;;;;6237263;23;19924;-93
2022/11/24 14:21:40;;;;;;;;;;;;;;;;;;6232462;23;19916;-93
2022/11/24 14:24:06;;;;;;;;;;;;;;;;;;6236182;23;20280;-94
2022/11/24 14:26:32;;;;;;;;;;;;;;;;;;6233681;23;19925;-94
2022/11/24 14:28:58;;;;;;;;;;;;;;;;;;6237989;23;20240;-93
2022/11/24 14:31:28;;;;;;;;;;;;;;;;;;6234768;23;19991;-94
2022/11/24 14:34:03;;;;;;;;;;;;;;;;;;6234433;22;19958;-93
2022/11/24 14:36:29;;;;;;;;;;;;;;;;;;6228847;23;19926;-92
2022/11/24 14:38:55;;;;;;;;;;;;;;;;;;6231856;23;20356;-92
2022/11/24 14:41:24;;;;;;;;;;;;;;;;;;6232705;23;19922;-93
2022/11/24 14:43:50;;;;;;;;;;;;;;;;;;6232243;23;19919;-91
2022/11/24 14:46:16;;;;;;;;;;;;;;;;;;6231555;23;19916;-93
2022/11/24 14:48:42;;;;;;;;;;;;;;;;;;6228765;23;19923;-93
2022/11/24 14:51:10;;;;;;;;;;;;;;;;;;6232411;23;19950;-93
2022/11/24 14:53:39;;;;;;;;;;;;;;;;;;6226389;23;19951;-91
2022/11/24 14:56:06;;;;;;;;;;;;;;;;;;6229811;23;19930;-92
2022/11/24 14:58:33;;;;;;;;;;;;;;;;;;6226922;23;20351;-93
2022/11/24 15:00:59;;;;;;;;;;;;;;;;;;6229976;22;20018;-92
2022/11/24 15:03:25;;;;;;;;;;;;;;;;;;6227696;23;19919;-93
2022/11/24 15:05:51;;;;;;;;;;;;;;;;;;6231511;23;20479;-93
2022/11/24 15:08:23;;;;;;;;;;;;;;;;;;6234309;23;19923;-93
2022/11/24 15:13:39;;;;;;;;;;;;;;;;;;6257529;22;20316;-93
2022/11/24 15:16:07;;;;;;;;;;;;;;;;;;6228746;23;19947;-92
2022/11/24 15:18:33;;;;;;;;;;;;;;;;;;6230659;23;19934;-92
2022/11/24 15:20:59;;;;;;;;;;;;;;;;;;6236225;23;19916;-92
2022/11/24 15:23:25;;;;;;;;;;;;;;;;;;6231983;23;20329;-92
2022/11/24 15:25:51;;;;;;;;;;;;;;;;;;6238537;23;19974;-93
2022/11/24 15:28:21;;;;;;;;;;;;;;;;;;6235788;23;19916;-93
2022/11/24 15:30:47;;;;;;;;;;;;;;;;;;6234805;23;19954;-93
2022/11/24 15:33:14;;;;;;;;;;;;;;;;;;6238643;23;19923;-93
2022/11/24 15:35:40;;;;;;;;;;;;;;;;;;6234923;23;19924;-92
2022/11/24 15:38:06;;;;;;;;;;;;;;;;;;6237515;23;19924;-93
2022/11/24 15:40:32;;;;;;;;;;;;;;;;;;6235369;23;19942;-93
2022/11/24 15:42:58;;;;;;;;;;;;;;;;;;6237509;23;19951;-93
2022/11/24 15:45:25;;;;;;;;;;;;;;;;;;6234832;23;20050;-93
2022/11/24 15:47:51;;;;;;;;;;;;;;;;;;6237475;23;19926;-92
2022/11/24 15:50:17;;;;;;;;;;;;;;;;;;6237846;23;20244;-92
2022/11/24 15:52:43;;;;;;;;;;;;;;;;;;6234879;23;19919;-92
2022/11/24 15:55:09;;;;;;;;;;;;;;;;;;6237526;23;19961;-93
2022/11/24 15:57:35;;;;;;;;;;;;;;;;;;6233696;23;19924;-93
2022/11/24 16:00:01;;;;;;;;;;;;;;;;;;6235343;23;19929;-92
2022/11/24 16:02:27;;;;;;;;;;;;;;;;;;6233539;22;19915;-93
2022/11/24 16:04:53;;;;;;;;;;;;;;;;;;6237017;23;19920;-92
2022/11/24 16:07:19;;;;;;;;;;;;;;;;;;6235867;23;19916;-92
2022/11/24 16:09:45;;;;;;;;;;;;;;;;;;6233645;23;19919;-93
2022/11/24 16:12:11;;;;;;;;;;;;;;;;;;6236803;23;19974;-92
2022/11/24 16:14:37;;;;;;;;;;;;;;;;;;6236258;23;19985;-93
2022/11/24 16:17:03;;;;;;;;;;;;;;;;;;6238068;23;19915;-92
2022/11/24 16:19:29;;;;;;;;;;;;;;;;;;6232519;23;19919;-92
2022/11/24 16:21:56;;;;;;;;;;;;;;;;;;6238566;23;19920;-93
2022/11/24 16:24:25;;;;;;;;;;;;;;;;;;6237076;23;20341;-92
2022/11/24 16:26:53;;;;;;;;;;;;;;;;;;6237125;23;19926;-92
2022/11/24 16:29:22;;;;;;;;;;;;;;;;;;6236984;23;20039;-92
2022/11/24 16:31:49;;;;;;;;;;;;;;;;;;6235308;23;19919;-92
2022/11/24 16:34:17;;;;;;;;;;;;;;;;;;6236576;23;20327;-92
2022/11/24 16:36:43;;;;;;;;;;;;;;;;;;6230939;23;20001;-92
2022/11/24 16:39:09;;;;;;;;;;;;;;;;;;6233619;23;19924;-92
2022/11/24 16:41:35;;;;;;;;;;;;;;;;;;6232041;23;20292;-92
2022/11/24 16:44:01;;;;;;;;;;;;;;;;;;6235432;23;19923;-92
2022/11/24 16:46:27;;;;;;;;;;;;;;;;;;6232501;23;19946;-92
2022/11/24 16:55:12;;;;;;;;;;;;;;;;;;;;;
2022/11/24 16:57:53;;;;;;;;;;;;;;;;;;6230508;23;19923;-93
2022/11/24 17:00:33;;;;;;;;;;;;;;;;;;6203283;23;19934;-92
2022/11/24 17:09:24;;;;;;;;;;;;;;;;;;6088116;23;19924;-92
2022/11/24 17:12:10;;;;;;;;;;;;;;;;;;;;;
2022/11/24 17:26:43;;;;;;;;;;;;;;;;;;6258876;22;19923;-90
2022/11/24 17:29:15;;;;;;;;;;;;;;;;;;6208101;22;19919;-89
2022/11/24 17:31:41;;;;;;;;;;;;;;;;;;6206292;22;20447;-90
2022/11/24 17:34:10;;;;;;;;;;;;;;;;;;6208190;22;20479;-89
2022/11/24 17:36:46;;;;;;;;;;;;;;;;;;;;;
2022/11/24 17:39:26;;;;;;;;;;;;;;;;;;6238394;22;19994;-90
2022/11/24 17:41:52;;;;;;;;;;;;;;;;;;6238875;22;19919;-89
2022/11/24 17:44:24;;;;;;;;;;;;;;;;;;6236140;22;19916;-89
2022/11/24 17:46:50;;;;;;;;;;;;;;;;;;6207022;22;19923;-90
2022/11/24 17:49:22;;;;;;;;;;;;;;;;;;6208387;22;20002;-89
2022/11/24 17:51:49;;;;;;;;;;;;;;;;;;6208041;22;20284;-90
2022/11/24 17:57:12;;;;;;;;;;;;;;;;;;6211832;23;19926;-89
2022/11/24 17:59:51;;;;;;;;;;;;;;;;;;;;;
2022/11/24 18:02:19;;;;;;;;;;;;;;;;;;6250952;22;20337;-91
2022/11/24 18:04:45;;;;;;;;;;;;;;;;;;6226741;23;20329;-91
2022/11/24 18:07:26;;;;;;;;;;;;;;;;;;6221732;23;19990;-91
2022/11/24 18:10:04;;;;;;;;;;;;;;;;;;6223930;23;19985;-91
2022/11/24 18:12:42;;;;;;;;;;;;;;;;;;6221803;23;20333;-91
2022/11/24 18:15:17;;;;;;;;;;;;;;;;;;6228835;23;20291;-92
2022/11/24 18:17:46;;;;;;;;;;;;;;;;;;6229180;23;20315;-91
2022/11/24 18:20:31;;;;;;;;;;;;;;;;;;6228505;22;20634;-91
2022/11/24 18:22:57;;;;;;;;;;;;;;;;;;6229141;23;19919;-91
2022/11/24 18:25:27;;;;;;;;;;;;;;;;;;6229195;23;19923;-91
2022/11/24 18:27:53;;;;;;;;;;;;;;;;;;6231726;23;19935;-90